Time;durP1;ratioP1;P1;durP2;ratioP2;P2;SDS_P1;SDS_P2;PMS_P1;PMS_P2;Temp;Humidity;BMP_temperature;BMP_pressure;BME280_temperature;BME280_humidity;BME280_pressure;Samples;Min_cycle;Max_cycle;Signal;HPM_P1;HPM_P2
2021/04/30 00:00:53;;;;;;;4.78;1.40;;;7.60;99.90;;;;;;5031893;28;20249;-68
2021/04/30 00:03:19;;;;;;;4.00;0.88;;;7.60;99.90;;;;;;5030685;28;20171;-68
2021/04/30 00:05:45;;;;;;;4.97;1.50;;;7.70;99.90;;;;;;5012759;28;20179;-67
2021/04/30 00:08:12;;;;;;;5.70;1.27;;;7.80;99.90;;;;;;5012826;28;20202;-68
2021/04/30 00:10:39;;;;;;;5.03;2.03;;;7.90;99.90;;;;;;5033639;28;20405;-68
2021/04/30 00:13:05;;;;;;;4.22;1.05;;;7.90;99.90;;;;;;5036254;28;20166;-67
2021/04/30 00:15:30;;;;;;;8.00;2.70;;;7.90;99.90;;;;;;5032097;28;20696;-66
2021/04/30 00:17:56;;;;;;;4.23;1.20;;;7.90;99.90;;;;;;5035745;28;20548;-67
2021/04/30 00:20:22;;;;;;;4.93;1.67;;;8.00;99.90;;;;;;5026310;28;20206;-67
2021/04/30 00:22:47;;;;;;;4.77;1.83;;;8.00;99.90;;;;;;5036182;28;20229;-69
2021/04/30 00:25:14;;;;;;;5.90;1.93;;;8.10;99.90;;;;;;5024904;28;20177;-67
2021/04/30 00:27:39;;;;;;;4.95;1.45;;;8.10;99.90;;;;;;5034691;28;20174;-68
2021/04/30 00:30:07;;;;;;;4.10;1.13;;;8.10;99.90;;;;;;5036221;28;20253;-67
2021/04/30 00:32:33;;;;;;;5.10;2.00;;;8.10;99.90;;;;;;5035710;28;20253;-67
2021/04/30 00:35:03;;;;;;;5.13;1.43;;;8.20;99.90;;;;;;5033469;28;20601;-67
2021/04/30 00:37:29;;;;;;;5.22;1.80;;;8.20;99.90;;;;;;5035608;28;20446;-67
2021/04/30 00:39:55;;;;;;;5.80;2.20;;;8.20;99.90;;;;;;5035045;28;20197;-68
2021/04/30 00:42:20;;;;;;;5.77;1.83;;;8.20;99.90;;;;;;5018544;28;20423;-66
2021/04/30 00:44:46;;;;;;;5.63;2.90;;;8.20;99.90;;;;;;5016125;28;20921;-67
2021/04/30 00:47:44;;;;;;;4.30;1.00;;;8.20;99.90;;;;;;5030221;28;20180;-68
2021/04/30 00:50:12;;;;;;;5.82;1.80;;;8.20;99.90;;;;;;5014744;28;20195;-67
2021/04/30 00:52:38;;;;;;;4.35;1.20;;;8.30;99.90;;;;;;5033335;28;20229;-66
2021/04/30 00:55:06;;;;;;;6.63;2.22;;;8.30;99.90;;;;;;5034214;28;20166;-67
2021/04/30 00:57:32;;;;;;;4.63;1.02;;;8.30;99.90;;;;;;5032925;28;20205;-69
2021/04/30 00:59:59;;;;;;;5.85;1.38;;;8.30;99.90;;;;;;5034583;28;20305;-67
2021/04/30 01:02:28;;;;;;;5.03;1.90;;;8.30;99.90;;;;;;5035638;28;20166;-67
2021/04/30 01:04:53;;;;;;;6.28;2.03;;;8.30;99.90;;;;;;5028633;28;20557;-68
2021/04/30 01:07:19;;;;;;;5.50;1.97;;;8.30;99.90;;;;;;5034573;28;20232;-69
2021/04/30 01:09:45;;;;;;;9.67;2.23;;;8.30;99.90;;;;;;5024264;28;20205;-68
2021/04/30 01:12:11;;;;;;;4.55;0.95;;;8.30;99.90;;;;;;5015490;28;20169;-66
2021/04/30 01:14:36;;;;;;;5.70;1.57;;;8.30;99.90;;;;;;5023843;28;20190;-68
2021/04/30 01:17:02;;;;;;;7.03;1.97;;;8.30;99.90;;;;;;5034772;28;20402;-67
2021/04/30 01:19:30;;;;;;;6.90;2.90;;;8.30;99.90;;;;;;5032733;28;20189;-67
2021/04/30 01:21:57;;;;;;;5.88;1.35;;;8.30;99.90;;;;;;5034938;28;20412;-67
2021/04/30 01:24:23;;;;;;;5.80;2.00;;;8.20;99.90;;;;;;5034243;28;20220;-67
2021/04/30 01:26:50;;;;;;;7.32;2.40;;;8.10;99.90;;;;;;5034430;28;20163;-67
2021/04/30 01:29:16;;;;;;;6.25;2.15;;;8.10;99.90;;;;;;5033737;28;20220;-67
2021/04/30 01:31:43;;;;;;;7.40;2.58;;;8.10;99.90;;;;;;5034767;28;20254;-69
2021/04/30 01:34:10;;;;;;;4.95;1.55;;;8.10;99.90;;;;;;5046975;28;20179;-68
2021/04/30 01:36:36;;;;;;;7.15;2.10;;;8.10;99.90;;;;;;5034592;28;20193;-69
2021/04/30 01:39:06;;;;;;;5.45;1.63;;;8.10;99.90;;;;;;5033519;28;20228;-67
2021/04/30 01:41:33;;;;;;;6.38;1.65;;;8.10;99.90;;;;;;5033970;28;20176;-67
2021/04/30 01:43:59;;;;;;;5.13;1.50;;;8.10;99.90;;;;;;5031501;28;20165;-67
2021/04/30 01:46:24;;;;;;;8.30;1.60;;;8.10;99.90;;;;;;5014521;28;20757;-67
2021/04/30 01:48:50;;;;;;;5.70;1.90;;;8.10;99.90;;;;;;5032764;28;20256;-67
2021/04/30 01:51:16;;;;;;;5.17;1.60;;;8.10;99.90;;;;;;5049798;28;20243;-68
2021/04/30 01:53:42;;;;;;;6.00;2.87;;;8.00;99.90;;;;;;5029793;28;20174;-67
2021/04/30 01:56:09;;;;;;;5.20;1.90;;;8.10;99.90;;;;;;5014173;28;20178;-68
2021/04/30 01:58:36;;;;;;;5.38;2.05;;;8.10;99.90;;;;;;5017071;28;20475;-67
2021/04/30 02:01:03;;;;;;;6.75;2.13;;;8.10;99.90;;;;;;5033826;28;20177;-68
2021/04/30 02:03:29;;;;;;;7.78;1.88;;;8.10;99.90;;;;;;5033508;28;20201;-67
2021/04/30 02:05:55;;;;;;;4.83;1.67;;;8.10;99.90;;;;;;5049175;28;20207;-66
2021/04/30 02:08:21;;;;;;;6.53;1.53;;;8.10;99.90;;;;;;5034067;28;20457;-67
2021/04/30 02:10:47;;;;;;;5.25;1.42;;;8.10;99.90;;;;;;5032316;28;20454;-65
2021/04/30 02:13:15;;;;;;;9.33;2.70;;;8.20;99.90;;;;;;5034125;28;20209;-67
2021/04/30 02:15:44;;;;;;;6.15;2.25;;;8.20;99.90;;;;;;5029221;28;20431;-68
2021/04/30 02:18:10;;;;;;;6.35;2.00;;;8.10;99.90;;;;;;5018357;28;20214;-67
2021/04/30 02:20:36;;;;;;;5.65;1.67;;;8.00;99.90;;;;;;5014036;28;20181;-66
2021/04/30 02:23:02;;;;;;;8.27;2.57;;;8.00;99.90;;;;;;5026873;28;20193;-68
2021/04/30 02:25:29;;;;;;;4.97;1.88;;;8.00;99.90;;;;;;5033591;28;20781;-67
2021/04/30 02:27:56;;;;;;;4.95;1.75;;;8.00;99.90;;;;;;5021405;28;20220;-68
2021/04/30 02:30:23;;;;;;;4.40;1.33;;;8.10;99.90;;;;;;5016203;28;20629;-66
2021/04/30 02:32:50;;;;;;;7.00;1.83;;;8.10;99.90;;;;;;5033446;28;20258;-67
2021/04/30 02:35:45;;;;;;;5.25;1.50;;;8.10;99.90;;;;;;5032780;28;20180;-68
2021/04/30 02:38:14;;;;;;;6.32;1.52;;;8.10;99.90;;;;;;5036013;28;20281;-67
2021/04/30 02:40:41;;;;;;;5.75;1.70;;;8.10;99.90;;;;;;5030007;28;20177;-66
2021/04/30 02:43:11;;;;;;;5.18;2.15;;;8.10;99.90;;;;;;5013869;28;20166;-67
2021/04/30 02:45:37;;;;;;;5.90;2.20;;;8.10;99.90;;;;;;5030082;28;20529;-67
2021/04/30 02:48:09;;;;;;;6.35;2.25;;;8.20;99.90;;;;;;5033294;28;20289;-68
2021/04/30 02:50:35;;;;;;;5.28;2.22;;;8.10;99.90;;;;;;5031475;28;20185;-68
2021/04/30 02:53:01;;;;;;;5.85;2.38;;;8.10;99.90;;;;;;5013989;28;20183;-67
2021/04/30 02:55:27;;;;;;;6.60;2.70;;;8.00;99.90;;;;;;5013742;28;20257;-66
2021/04/30 02:57:55;;;;;;;7.80;2.77;;;8.00;99.90;;;;;;5032583;28;20195;-66
2021/04/30 03:00:22;;;;;;;6.20;2.15;;;8.00;99.90;;;;;;5032855;28;20194;-68
2021/04/30 03:02:49;;;;;;;5.80;1.90;;;8.00;99.90;;;;;;5032465;28;20190;-67
2021/04/30 03:05:15;;;;;;;5.43;1.75;;;8.00;99.90;;;;;;5033194;28;20206;-67
2021/04/30 03:07:41;;;;;;;5.03;1.60;;;7.90;99.90;;;;;;5023972;28;20175;-67
2021/04/30 03:10:07;;;;;;;7.70;3.17;;;7.90;99.90;;;;;;5033759;28;20249;-68
2021/04/30 03:12:33;;;;;;;5.90;2.53;;;7.90;99.90;;;;;;5032673;28;20656;-66
2021/04/30 03:14:59;;;;;;;8.13;2.60;;;7.80;99.90;;;;;;5033134;28;20204;-67
2021/04/30 03:17:25;;;;;;;4.70;1.60;;;7.80;99.90;;;;;;5019280;28;20703;-66
2021/04/30 03:19:50;;;;;;;5.80;2.63;;;7.80;99.90;;;;;;5016670;28;20441;-67
2021/04/30 03:22:16;;;;;;;10.10;3.20;;;7.80;99.90;;;;;;5021582;28;20177;-68
2021/04/30 03:24:42;;;;;;;4.73;1.40;;;7.70;99.90;;;;;;5013582;28;20179;-67
2021/04/30 03:27:09;;;;;;;5.93;2.23;;;7.70;99.90;;;;;;5022413;28;20413;-66
2021/04/30 03:29:34;;;;;;;6.00;1.75;;;7.70;99.90;;;;;;5032561;28;20225;-68
2021/04/30 03:32:00;;;;;;;5.47;2.37;;;7.70;99.90;;;;;;5032333;28;20209;-67
2021/04/30 03:34:25;;;;;;;5.23;1.83;;;7.70;99.90;;;;;;5033484;28;20213;-66
2021/04/30 03:36:51;;;;;;;9.30;3.07;;;7.70;99.90;;;;;;5031608;28;20669;-67
2021/04/30 03:39:17;;;;;;;5.50;2.00;;;7.70;99.90;;;;;;5032963;28;20210;-68
2021/04/30 03:41:42;;;;;;;6.33;1.70;;;7.70;99.90;;;;;;5032161;28;20158;-67
2021/04/30 03:44:08;;;;;;;6.10;2.27;;;7.70;99.90;;;;;;5033612;28;20182;-67
2021/04/30 03:46:34;;;;;;;9.57;3.07;;;7.80;99.90;;;;;;5033583;28;20643;-69
2021/04/30 03:48:59;;;;;;;10.10;3.10;;;7.80;99.90;;;;;;5036891;28;20201;-68
2021/04/30 03:51:25;;;;;;;4.77;1.30;;;7.80;99.90;;;;;;5034135;28;20232;-65
2021/04/30 03:53:50;;;;;;;6.70;1.80;;;7.80;99.90;;;;;;5017119;28;20708;-66
2021/04/30 03:56:16;;;;;;;7.30;1.97;;;7.80;99.90;;;;;;5016991;28;20217;-67
2021/04/30 03:58:44;;;;;;;5.93;1.50;;;7.90;99.90;;;;;;5036072;28;20237;-67
2021/04/30 04:01:10;;;;;;;7.53;2.80;;;7.90;99.90;;;;;;5036301;28;20175;-68
2021/04/30 04:03:36;;;;;;;5.73;1.70;;;7.90;99.90;;;;;;5035601;28;20181;-66
2021/04/30 04:06:01;;;;;;;6.97;2.80;;;7.80;99.90;;;;;;5036225;28;20174;-67
2021/04/30 04:08:29;;;;;;;5.43;1.73;;;7.80;99.90;;;;;;5051188;28;20204;-67
2021/04/30 04:10:55;;;;;;;6.82;2.45;;;7.80;99.90;;;;;;5036003;28;20208;-67
2021/04/30 04:13:23;;;;;;;7.07;2.20;;;7.80;99.90;;;;;;5020517;28;20301;-66
2021/04/30 04:15:50;;;;;;;5.68;2.00;;;7.80;99.90;;;;;;5016289;28;20226;-66
2021/04/30 04:18:17;;;;;;;5.38;1.58;;;7.80;99.90;;;;;;5029807;28;20231;-66
2021/04/30 04:20:43;;;;;;;7.68;3.22;;;7.80;99.90;;;;;;5034328;28;20166;-67
2021/04/30 04:23:09;;;;;;;6.95;3.00;;;7.80;99.90;;;;;;5032741;28;20196;-66
2021/04/30 04:25:35;;;;;;;6.80;2.83;;;7.80;99.90;;;;;;5034955;28;20196;-67
2021/04/30 04:28:02;;;;;;;4.93;1.80;;;7.80;99.90;;;;;;5035540;28;20198;-66
2021/04/30 04:30:27;;;;;;;6.13;1.90;;;7.80;99.90;;;;;;5033532;28;20258;-67
2021/04/30 04:32:53;;;;;;;6.00;2.50;;;7.80;99.90;;;;;;5016148;28;20258;-67
2021/04/30 04:35:19;;;;;;;6.18;2.80;;;7.80;99.90;;;;;;5033179;28;20177;-67
2021/04/30 04:37:45;;;;;;;8.30;3.63;;;7.80;99.90;;;;;;5035401;28;20684;-66
2021/04/30 04:40:12;;;;;;;5.57;2.17;;;7.80;99.90;;;;;;5027477;28;20841;-67
2021/04/30 04:42:39;;;;;;;6.88;3.00;;;7.80;99.90;;;;;;5036014;28;20551;-67
2021/04/30 04:45:06;;;;;;;8.60;3.05;;;7.90;99.90;;;;;;5021380;28;20196;-68
2021/04/30 04:47:32;;;;;;;7.57;3.38;;;7.90;99.90;;;;;;5024817;28;20180;-66
2021/04/30 04:49:58;;;;;;;5.80;2.17;;;7.90;99.90;;;;;;5035046;28;20212;-67
2021/04/30 04:52:23;;;;;;;6.67;2.77;;;7.90;99.90;;;;;;5027732;28;20181;-67
2021/04/30 04:54:49;;;;;;;6.23;2.30;;;7.90;99.90;;;;;;5015915;28;20169;-66
2021/04/30 04:57:14;;;;;;;5.33;1.47;;;8.00;99.90;;;;;;5015216;28;20190;-67
2021/04/30 04:59:40;;;;;;;4.90;1.43;;;7.90;99.90;;;;;;5015578;28;20284;-67
2021/04/30 05:02:06;;;;;;;6.40;3.20;;;8.00;99.90;;;;;;5025100;28;20170;-66
2021/04/30 05:04:31;;;;;;;5.87;2.20;;;8.00;99.90;;;;;;5016317;28;20177;-67
2021/04/30 05:06:57;;;;;;;5.60;2.20;;;8.00;99.90;;;;;;5017356;28;20647;-67
2021/04/30 05:09:23;;;;;;;8.23;2.30;;;8.10;99.90;;;;;;5035377;28;20195;-66
2021/04/30 05:11:49;;;;;;;9.93;2.72;;;8.10;99.90;;;;;;5034326;28;20173;-68
2021/04/30 05:14:15;;;;;;;6.25;1.90;;;8.10;99.90;;;;;;5015506;28;20179;-67
2021/04/30 05:16:40;;;;;;;6.50;2.23;;;8.10;99.90;;;;;;5027204;28;20181;-67
2021/04/30 05:19:06;;;;;;;6.03;2.20;;;8.20;99.90;;;;;;5015811;28;20720;-67
2021/04/30 05:21:32;;;;;;;5.43;2.47;;;8.20;99.90;;;;;;5015212;28;20571;-68
2021/04/30 05:23:59;;;;;;;5.25;1.85;;;8.20;99.90;;;;;;5032218;28;20177;-66
2021/04/30 05:26:29;;;;;;;6.82;2.78;;;8.20;99.90;;;;;;5034642;28;20255;-64
2021/04/30 05:28:57;;;;;;;4.75;1.15;;;8.30;99.90;;;;;;5018374;28;20202;-68
2021/04/30 05:31:23;;;;;;;12.25;3.33;;;8.30;99.90;;;;;;5027106;28;20182;-66
2021/04/30 05:33:49;;;;;;;4.93;2.03;;;8.30;99.90;;;;;;5029265;28;20166;-68
2021/04/30 05:36:14;;;;;;;7.00;2.30;;;8.30;99.90;;;;;;5034533;28;20565;-69
2021/04/30 05:38:40;;;;;;;13.53;3.07;;;8.30;99.90;;;;;;5021626;28;20704;-68
2021/04/30 05:41:05;;;;;;;5.03;2.10;;;8.30;99.90;;;;;;5014796;28;20170;-68
2021/04/30 05:43:31;;;;;;;6.43;2.20;;;8.40;99.90;;;;;;5020588;28;20179;-70
2021/04/30 05:45:57;;;;;;;6.20;2.30;;;8.40;99.90;;;;;;5018863;28;20174;-67
2021/04/30 05:48:23;;;;;;;6.63;2.37;;;8.40;99.90;;;;;;5024871;28;20224;-65
2021/04/30 05:50:48;;;;;;;7.83;2.37;;;8.50;99.90;;;;;;5023251;28;20448;-68
2021/04/30 05:53:14;;;;;;;6.40;2.30;;;8.70;99.90;;;;;;5029460;28;20428;-67
2021/04/30 05:55:40;;;;;;;7.27;3.30;;;8.70;99.90;;;;;;5054129;28;20176;-67
2021/04/30 05:58:06;;;;;;;6.67;2.50;;;8.70;99.90;;;;;;5052637;28;20213;-70
2021/04/30 06:00:31;;;;;;;7.53;2.85;;;8.80;99.90;;;;;;5026630;28;20538;-68
2021/04/30 06:02:57;;;;;;;12.70;4.37;;;8.90;99.90;;;;;;5032161;28;20178;-70
2021/04/30 06:05:23;;;;;;;6.83;2.70;;;8.90;99.90;;;;;;5032542;28;20640;-65
2021/04/30 06:07:48;;;;;;;6.73;2.13;;;9.00;99.90;;;;;;5020609;28;20189;-69
2021/04/30 06:10:14;;;;;;;6.30;2.60;;;9.00;99.90;;;;;;5033462;28;20182;-71
2021/04/30 06:12:41;;;;;;;6.53;2.97;;;9.10;99.90;;;;;;5033998;28;20170;-70
2021/04/30 06:15:07;;;;;;;8.07;3.72;;;9.20;99.90;;;;;;5022492;28;20265;-68
2021/04/30 06:17:33;;;;;;;6.00;2.67;;;9.20;99.90;;;;;;5022414;28;20193;-70
2021/04/30 06:19:59;;;;;;;7.27;3.00;;;9.30;99.90;;;;;;5022963;28;20171;-68
2021/04/30 06:22:25;;;;;;;5.83;2.13;;;9.50;99.90;;;;;;5022699;28;20418;-67
2021/04/30 06:24:51;;;;;;;11.67;3.87;;;9.60;99.90;;;;;;5021140;28;20194;-66
2021/04/30 06:27:17;;;;;;;11.60;3.83;;;9.60;99.90;;;;;;5031875;28;20174;-68
2021/04/30 06:29:42;;;;;;;6.47;2.83;;;9.70;99.90;;;;;;5028102;28;20280;-68
2021/04/30 06:32:08;;;;;;;7.27;3.03;;;9.80;99.90;;;;;;5026409;28;20242;-71
2021/04/30 06:34:34;;;;;;;7.20;3.90;;;9.70;99.90;;;;;;5027531;28;20661;-66
2021/04/30 06:37:00;;;;;;;8.57;2.90;;;9.70;99.90;;;;;;5019935;28;20174;-65
2021/04/30 06:39:25;;;;;;;9.30;4.10;;;9.70;99.90;;;;;;5013701;28;20198;-66
2021/04/30 06:41:51;;;;;;;8.37;3.40;;;9.70;99.90;;;;;;5014236;28;20163;-70
2021/04/30 06:44:17;;;;;;;8.83;2.73;;;9.70;99.90;;;;;;5022755;28;20173;-70
2021/04/30 06:46:44;;;;;;;6.78;3.33;;;9.60;99.60;;;;;;5026684;28;20422;-70
2021/04/30 06:49:10;;;;;;;5.82;3.10;;;9.60;99.60;;;;;;5018306;28;20195;-69
2021/04/30 06:51:36;;;;;;;5.60;2.63;;;9.60;99.40;;;;;;5013776;28;20201;-69
2021/04/30 06:54:02;;;;;;;8.00;3.77;;;9.60;99.60;;;;;;5014491;28;20170;-66
2021/04/30 06:56:29;;;;;;;8.55;2.95;;;9.60;99.80;;;;;;5030141;28;20178;-70
2021/04/30 06:58:55;;;;;;;11.93;3.80;;;9.50;99.80;;;;;;5028063;28;20202;-68
2021/04/30 07:01:21;;;;;;;5.88;2.30;;;9.50;99.80;;;;;;5033092;28;20187;-69
2021/04/30 07:03:46;;;;;;;6.93;3.10;;;9.50;99.90;;;;;;5033413;28;20166;-71
2021/04/30 07:06:16;;;;;;;7.33;3.03;;;9.60;99.90;;;;;;5032988;28;20406;-73
2021/04/30 07:08:42;;;;;;;5.75;2.42;;;9.50;99.90;;;;;;5033193;28;20416;-73
2021/04/30 07:11:08;;;;;;;7.23;3.60;;;9.50;99.90;;;;;;5033578;28;20263;-69
2021/04/30 07:13:35;;;;;;;5.60;2.30;;;9.40;99.90;;;;;;5029739;28;20487;-67
2021/04/30 07:16:05;;;;;;;6.93;2.20;;;9.40;99.90;;;;;;5032787;28;20235;-68
2021/04/30 07:18:31;;;;;;;7.25;3.72;;;9.40;99.90;;;;;;5033159;28;20208;-70
2021/04/30 07:20:57;;;;;;;10.60;3.90;;;9.40;99.90;;;;;;5036821;28;20178;-70
2021/04/30 07:23:23;;;;;;;8.35;3.33;;;9.30;99.90;;;;;;5036890;28;20562;-68
2021/04/30 07:25:50;;;;;;;7.97;3.50;;;;;;;;;;5037003;28;20166;-71
2021/04/30 07:28:15;;;;;;;6.18;1.70;;;9.30;99.90;;;;;;5037110;28;20424;-68
2021/04/30 07:30:41;;;;;;;7.70;3.63;;;9.30;99.90;;;;;;5036786;28;20285;-68
2021/04/30 07:33:07;;;;;;;6.10;2.83;;;9.40;99.90;;;;;;5037325;28;20416;-68
2021/04/30 07:35:32;;;;;;;7.60;2.70;;;9.30;99.90;;;;;;5036674;28;20537;-67
2021/04/30 07:37:58;;;;;;;7.50;3.23;;;9.30;99.90;;;;;;5033319;28;20210;-68
2021/04/30 07:40:24;;;;;;;7.30;2.87;;;9.30;99.90;;;;;;5036697;28;20213;-69
2021/04/30 07:42:50;;;;;;;6.60;2.67;;;9.30;99.90;;;;;;5036695;28;20186;-69
2021/04/30 07:45:16;;;;;;;7.20;3.37;;;9.30;99.90;;;;;;5037007;28;20256;-69
2021/04/30 07:47:42;;;;;;;8.63;3.43;;;9.30;99.90;;;;;;5036469;28;20174;-70
2021/04/30 07:50:08;;;;;;;6.23;2.00;;;9.50;99.90;;;;;;5034729;28;20190;-66
2021/04/30 07:52:34;;;;;;;6.60;2.72;;;9.50;99.90;;;;;;5031500;28;20178;-67
2021/04/30 07:55:02;;;;;;;11.73;4.00;;;9.50;99.90;;;;;;5016790;28;20660;-69
2021/04/30 07:57:33;;;;;;;5.38;2.50;;;9.60;99.90;;;;;;5016415;28;20198;-69
2021/04/30 07:59:59;;;;;;;6.43;3.10;;;9.70;99.90;;;;;;5033829;28;20296;-66
2021/04/30 08:02:24;;;;;;;7.70;3.60;;;9.70;99.90;;;;;;5036459;28;20268;-67
2021/04/30 08:04:50;;;;;;;7.10;3.47;;;9.80;99.90;;;;;;5037071;28;20162;-69
2021/04/30 08:07:16;;;;;;;6.80;2.90;;;9.90;99.90;;;;;;5036202;28;20178;-70
2021/04/30 08:09:42;;;;;;;8.50;3.20;;;10.00;99.90;;;;;;5036328;28;20251;-66
2021/04/30 08:12:08;;;;;;;7.47;3.40;;;10.10;99.90;;;;;;5035998;28;20513;-71
2021/04/30 08:14:34;;;;;;;6.13;2.70;;;10.10;99.90;;;;;;5036495;28;20539;-70
2021/04/30 08:17:00;;;;;;;7.43;2.67;;;10.20;99.90;;;;;;5035840;28;20249;-68
2021/04/30 08:19:26;;;;;;;5.43;2.33;;;10.10;99.90;;;;;;5035915;28;20452;-69
2021/04/30 08:21:52;;;;;;;7.38;3.30;;;10.10;99.90;;;;;;5036305;28;20170;-69
2021/04/30 08:24:18;;;;;;;6.78;3.42;;;10.10;99.90;;;;;;5036190;28;20544;-70
2021/04/30 08:26:44;;;;;;;8.55;3.15;;;10.00;99.90;;;;;;5036086;28;20170;-69
2021/04/30 08:29:10;;;;;;;6.80;2.20;;;9.90;99.90;;;;;;5051281;28;20194;-66
2021/04/30 08:31:36;;;;;;;6.00;2.40;;;9.90;99.90;;;;;;5034732;28;20421;-64
2021/04/30 08:34:02;;;;;;;7.57;3.70;;;9.90;99.90;;;;;;5036116;28;20186;-66
2021/04/30 08:36:28;;;;;;;6.30;3.30;;;9.90;99.90;;;;;;5035538;28;20474;-65
2021/04/30 08:38:53;;;;;;;7.43;3.27;;;9.80;99.90;;;;;;5035783;28;20275;-65
2021/04/30 08:41:19;;;;;;;9.37;3.17;;;9.70;99.90;;;;;;5035780;28;20174;-66
2021/04/30 08:43:47;;;;;;;9.20;2.30;;;9.70;99.90;;;;;;5035897;28;20170;-64
2021/04/30 08:46:13;;;;;;;6.40;2.53;;;9.80;99.90;;;;;;5035483;28;20162;-66
2021/04/30 08:48:39;;;;;;;7.53;3.20;;;9.80;99.90;;;;;;5035510;28;20194;-66
2021/04/30 08:51:05;;;;;;;5.53;2.90;;;9.80;99.90;;;;;;5035330;28;20459;-66
2021/04/30 08:53:31;;;;;;;6.20;2.27;;;9.70;99.90;;;;;;5035764;28;20174;-65
2021/04/30 08:56:01;;;;;;;6.15;2.65;;;9.80;99.90;;;;;;5035055;28;20420;-65
2021/04/30 08:58:27;;;;;;;6.80;2.65;;;9.90;99.90;;;;;;5050372;28;20292;-66
2021/04/30 09:00:54;;;;;;;5.93;2.30;;;9.90;99.90;;;;;;5035537;28;20261;-65
2021/04/30 09:03:20;;;;;;;9.30;2.65;;;9.90;99.90;;;;;;5035433;28;20467;-65
2021/04/30 09:05:51;;;;;;;6.30;2.33;;;10.10;99.90;;;;;;5034836;28;20182;-66
2021/04/30 09:08:18;;;;;;;5.18;2.00;;;10.10;99.90;;;;;;5035242;28;20217;-66
2021/04/30 09:10:49;;;;;;;7.32;3.00;;;10.10;99.90;;;;;;5035429;28;20170;-66
2021/04/30 09:13:17;;;;;;;6.57;3.30;;;10.20;99.90;;;;;;5035348;28;20177;-65
2021/04/30 09:15:45;;;;;;;5.35;2.50;;;10.20;99.90;;;;;;5034397;28;20174;-65
2021/04/30 09:18:17;;;;;;;7.88;4.07;;;10.20;99.90;;;;;;5035067;28;20206;-65
2021/04/30 09:20:44;;;;;;;8.70;3.63;;;10.20;99.90;;;;;;5035487;28;20193;-66
2021/04/30 09:23:32;;;;;;;6.57;3.22;;;10.30;99.90;;;;;;5034923;28;20166;-65
2021/04/30 09:25:58;;;;;;;9.40;3.28;;;10.40;99.90;;;;;;5034733;28;20197;-63
2021/04/30 09:28:24;;;;;;;7.33;2.93;;;10.40;99.90;;;;;;5034455;28;20671;-64
2021/04/30 09:30:51;;;;;;;9.13;3.00;;;10.40;99.90;;;;;;5050140;28;20875;-64
2021/04/30 09:33:23;;;;;;;7.10;3.47;;;10.30;99.90;;;;;;5034906;28;20194;-66
2021/04/30 09:35:54;;;;;;;6.65;2.70;;;10.40;99.90;;;;;;5034606;28;20529;-63
2021/04/30 09:38:27;;;;;;;7.57;3.92;;;10.30;99.90;;;;;;5034685;28;20197;-65
2021/04/30 09:41:09;;;;;;;11.25;4.28;;;10.40;99.90;;;;;;5034787;28;20170;-66
2021/04/30 09:43:41;;;;;;;6.57;2.88;;;10.30;99.90;;;;;;5034302;28;20173;-65
2021/04/30 09:46:30;;;;;;;6.47;2.90;;;10.40;99.90;;;;;;5034195;28;20502;-65
2021/04/30 09:49:02;;;;;;;9.40;4.15;;;10.40;99.90;;;;;;5034599;28;20190;-66
2021/04/30 09:51:52;;;;;;;6.80;2.67;;;10.40;99.90;;;;;;5033830;28;20272;-66
2021/04/30 09:54:23;;;;;;;7.15;3.08;;;10.50;99.90;;;;;;5034673;28;20165;-65
2021/04/30 09:57:04;;;;;;;9.23;3.40;;;10.50;99.90;;;;;;5034111;28;20174;-66
2021/04/30 09:59:30;;;;;;;6.18;2.97;;;10.50;99.90;;;;;;5034115;28;20208;-66
2021/04/30 10:02:10;;;;;;;8.73;3.63;;;10.50;99.90;;;;;;5034215;28;20212;-64
2021/04/30 10:04:36;;;;;;;8.00;3.00;;;10.50;99.90;;;;;;5033934;28;20165;-65
2021/04/30 10:07:06;;;;;;;8.45;3.80;;;10.50;99.90;;;;;;5033802;28;20509;-64
2021/04/30 10:09:33;;;;;;;10.63;3.90;;;10.40;99.90;;;;;;5034278;28;20545;-64
2021/04/30 10:12:17;;;;;;;7.50;3.70;;;10.30;99.90;;;;;;5034230;28;20170;-65
2021/04/30 10:14:43;;;;;;;8.68;3.75;;;10.10;99.90;;;;;;5034112;28;20244;-64
2021/04/30 10:17:08;;;;;;;6.97;3.20;;;10.10;99.90;;;;;;5033738;28;20170;-65
2021/04/30 10:19:34;;;;;;;7.70;3.67;;;10.20;99.90;;;;;;5033412;28;20210;-65
2021/04/30 10:22:01;;;;;;;8.57;3.30;;;10.20;99.90;;;;;;5034050;28;20256;-65
2021/04/30 10:24:29;;;;;;;7.70;3.15;;;10.20;99.90;;;;;;5033697;28;20520;-64
2021/04/30 10:26:57;;;;;;;6.85;3.15;;;10.10;99.90;;;;;;5033351;28;20249;-66
2021/04/30 10:29:25;;;;;;;9.48;3.75;;;10.10;99.90;;;;;;5033445;28;20217;-65
2021/04/30 10:31:56;;;;;;;11.75;3.15;;;10.10;99.90;;;;;;5032465;28;20170;-66
2021/04/30 10:34:25;;;;;;;7.78;3.25;;;10.10;99.90;;;;;;5033885;28;20178;-67
2021/04/30 10:36:55;;;;;;;7.47;3.03;;;10.20;99.90;;;;;;5033364;28;20216;-65
2021/04/30 10:39:30;;;;;;;6.93;2.90;;;10.20;99.90;;;;;;5033680;28;20204;-67
2021/04/30 10:41:56;;;;;;;8.73;3.60;;;10.20;99.90;;;;;;5033317;28;20177;-64
2021/04/30 10:44:31;;;;;;;7.22;3.13;;;10.20;99.90;;;;;;5033631;28;20241;-64
2021/04/30 10:47:09;;;;;;;7.72;3.92;;;10.10;99.90;;;;;;5033281;28;20161;-65
2021/04/30 10:49:36;;;;;;;10.68;3.80;;;9.90;99.90;;;;;;5032934;28;20225;-66
2021/04/30 10:52:09;;;;;;;7.28;3.38;;;9.80;99.90;;;;;;5033456;28;20599;-67
2021/04/30 10:54:37;;;;;;;8.65;3.63;;;9.80;99.90;;;;;;5033232;28;20174;-66
2021/04/30 10:57:17;;;;;;;8.15;3.13;;;9.70;99.90;;;;;;5033053;28;20174;-66
2021/04/30 10:59:47;;;;;;;8.05;3.70;;;9.70;99.90;;;;;;5033408;28;20202;-66
2021/04/30 11:02:19;;;;;;;7.93;3.85;;;9.60;99.90;;;;;;5033536;28;20643;-66
2021/04/30 11:05:03;;;;;;;6.47;3.17;;;9.50;99.90;;;;;;5033119;28;20228;-65
2021/04/30 11:07:30;;;;;;;12.98;4.30;;;9.50;99.90;;;;;;5032734;28;20251;-65
2021/04/30 11:09:56;;;;;;;8.20;3.22;;;9.40;99.90;;;;;;5033097;28;20188;-64
2021/04/30 11:12:24;;;;;;;6.03;2.77;;;9.30;99.90;;;;;;5032765;28;20173;-65
2021/04/30 11:15:10;;;;;;;8.13;3.58;;;9.20;99.90;;;;;;5033274;28;20401;-65
2021/04/30 11:17:55;;;;;;;8.02;3.00;;;9.10;99.90;;;;;;5047949;28;20655;-67
2021/04/30 11:20:23;;;;;;;7.10;3.13;;;9.00;99.90;;;;;;5033189;28;20247;-65
2021/04/30 11:23:11;;;;;;;9.77;5.22;;;8.90;99.90;;;;;;5032936;28;20243;-65
2021/04/30 11:25:58;;;;;;;7.35;3.15;;;8.70;99.90;;;;;;5032532;28;20595;-64
2021/04/30 11:28:29;;;;;;;10.57;3.40;;;8.60;99.90;;;;;;5032948;28;20611;-64
2021/04/30 11:31:09;;;;;;;7.68;3.63;;;8.50;99.90;;;;;;5033142;28;20178;-65
2021/04/30 11:33:43;;;;;;;6.47;2.38;;;8.40;99.90;;;;;;5032749;28;20202;-66
2021/04/30 11:36:14;;;;;;;8.70;3.13;;;8.40;99.90;;;;;;5032579;28;20305;-65
2021/04/30 11:38:50;;;;;;;6.50;3.03;;;8.30;99.90;;;;;;5032910;28;20202;-65
2021/04/30 11:41:16;;;;;;;9.57;3.20;;;8.20;99.90;;;;;;5032741;28;20178;-63
2021/04/30 11:43:49;;;;;;;7.03;3.30;;;8.10;99.90;;;;;;5032986;28;20309;-64
2021/04/30 11:46:15;;;;;;;8.07;2.95;;;8.10;99.90;;;;;;5032988;28;20202;-63
2021/04/30 11:48:43;;;;;;;9.00;4.13;;;8.10;99.90;;;;;;5033099;28;20280;-65
2021/04/30 11:51:14;;;;;;;12.40;3.63;;;8.10;99.90;;;;;;5032928;28;20479;-64
2021/04/30 11:53:43;;;;;;;6.13;2.85;;;8.10;99.90;;;;;;5033104;28;20169;-66
2021/04/30 11:56:10;;;;;;;8.88;3.85;;;8.10;99.90;;;;;;5032173;28;20174;-65
2021/04/30 11:58:42;;;;;;;9.52;3.40;;;8.10;99.90;;;;;;5032920;28;20203;-65
2021/04/30 12:01:09;;;;;;;9.75;2.75;;;8.10;99.90;;;;;;5033149;28;20258;-64
2021/04/30 12:03:46;;;;;;;7.70;3.13;;;8.20;99.90;;;;;;5032823;28;20179;-66
2021/04/30 12:06:16;;;;;;;7.32;3.28;;;8.10;99.90;;;;;;5032961;28;20637;-64
2021/04/30 12:08:43;;;;;;;7.25;2.65;;;8.00;99.90;;;;;;5036390;28;20282;-65
2021/04/30 12:11:10;;;;;;;8.57;2.70;;;7.90;99.90;;;;;;5036528;28;20186;-64
2021/04/30 12:13:39;;;;;;;7.22;2.65;;;7.80;99.90;;;;;;5036271;28;20197;-65
2021/04/30 12:16:13;;;;;;;5.45;1.88;;;7.80;99.90;;;;;;5035742;28;20216;-65
2021/04/30 12:18:39;;;;;;;7.68;3.50;;;7.70;99.90;;;;;;5036002;28;20201;-66
2021/04/30 12:21:05;;;;;;;6.90;3.10;;;7.70;99.90;;;;;;5036218;28;20179;-65
2021/04/30 12:23:30;;;;;;;7.83;1.90;;;7.60;99.90;;;;;;5036622;28;20178;-65
2021/04/30 12:25:56;;;;;;;8.90;3.10;;;7.70;99.90;;;;;;5035540;28;20413;-65
2021/04/30 12:28:30;;;;;;;6.17;2.70;;;7.60;99.90;;;;;;5036252;28;20206;-64
2021/04/30 12:31:09;;;;;;;5.70;2.65;;;7.70;99.90;;;;;;5036169;28;20270;-66
2021/04/30 12:33:36;;;;;;;5.15;2.08;;;7.60;99.90;;;;;;5036042;28;20169;-66
2021/04/30 12:36:13;;;;;;;7.07;3.10;;;7.60;99.90;;;;;;5035227;28;20166;-64
2021/04/30 12:38:42;;;;;;;7.00;2.60;;;7.60;99.90;;;;;;5035798;28;20212;-64
2021/04/30 12:41:25;;;;;;;7.00;2.83;;;7.60;99.90;;;;;;5035606;28;20167;-64
2021/04/30 12:43:55;;;;;;;8.98;3.30;;;7.60;99.90;;;;;;5050611;28;20285;-65
2021/04/30 12:46:24;;;;;;;6.55;3.13;;;7.60;99.90;;;;;;5035891;28;20158;-66
2021/04/30 12:48:52;;;;;;;6.75;3.40;;;7.70;99.90;;;;;;5050872;28;20208;-65
2021/04/30 12:51:42;;;;;;;4.68;1.30;;;7.70;99.90;;;;;;5035552;28;20703;-66
2021/04/30 12:54:08;;;;;;;9.68;3.28;;;7.70;99.90;;;;;;5050543;28;20690;-63
2021/04/30 12:56:38;;;;;;;7.85;2.80;;;7.70;99.90;;;;;;5034801;28;20202;-65
2021/04/30 12:59:15;;;;;;;12.75;2.65;;;7.70;99.90;;;;;;5035253;28;20206;-66